sensor_id;sensor_type;location;lat;lon;timestamp;temperature;humidity
40816;DHT22;26535;48.788;9.214;2022-11-15T06:01:33;7.00;99.90
40816;DHT22;26535;48.788;9.214;2022-11-15T06:04:17;7.00;99.90
40816;DHT22;26535;48.788;9.214;2022-11-15T06:07:03;7.00;99.90
40816;DHT22;26535;48.788;9.214;2022-11-15T06:09:47;7.00;99.90
40816;DHT22;26535;48.788;9.214;2022-11-15T06:12:31;7.00;99.90
40816;DHT22;26535;48.788;9.214;2022-11-15T06:15:16;7.00;99.90
40816;DHT22;26535;48.788;9.214;2022-11-15T06:18:00;7.00;99.90
40816;DHT22;26535;48.788;9.214;2022-11-15T06:20:44;7.00;99.90
40816;DHT22;26535;48.788;9.214;2022-11-15T06:23:32;7.00;99.90
40816;DHT22;26535;48.788;9.214;2022-11-15T06:26:16;7.00;99.90
40816;DHT22;26535;48.788;9.214;2022-11-15T06:29:03;7.00;99.90
40816;DHT22;26535;48.788;9.214;2022-11-15T06:31:47;7.00;99.90
40816;DHT22;26535;48.788;9.214;2022-11-15T06:34:31;7.00;99.90
40816;DHT22;26535;48.788;9.214;2022-11-15T06:37:15;7.00;99.90
40816;DHT22;26535;48.788;9.214;2022-11-15T06:39:59;7.10;99.90
40816;DHT22;26535;48.788;9.214;2022-11-15T06:42:43;7.10;99.90
40816;DHT22;26535;48.788;9.214;2022-11-15T06:45:27;7.10;99.90
40816;DHT22;26535;48.788;9.214;2022-11-15T06:48:12;7.20;99.90
40816;DHT22;26535;48.788;9.214;2022-11-15T06:51:00;7.10;99.90
40816;DHT22;26535;48.788;9.214;2022-11-15T06:53:45;7.20;99.90
40816;DHT22;26535;48.788;9.214;2022-11-15T06:56:29;7.20;99.90
40816;DHT22;26535;48.788;9.214;2022-11-15T06:59:14;7.30;99.90
40816;DHT22;26535;48.788;9.214;2022-11-15T07:01:58;7.30;99.90
40816;DHT22;26535;48.788;9.214;2022-11-15T07:04:42;7.40;99.90
40816;DHT22;26535;48.788;9.214;2022-11-15T07:07:26;7.50;99.90
40816;DHT22;26535;48.788;9.214;2022-11-15T07:10:10;7.60;99.90
40816;DHT22;26535;48.788;9.214;2022-11-15T07:12:55;7.70;99.90
40816;DHT22;26535;48.788;9.214;2022-11-15T07:15:39;7.80;99.90
40816;DHT22;26535;48.788;9.214;2022-11-15T07:18:24;7.90;99.90
40816;DHT22;26535;48.788;9.214;2022-11-15T07:21:09;8.00;99.90
40816;DHT22;26535;48.788;9.214;2022-11-15T07:23:54;8.10;99.90
40816;DHT22;26535;48.788;9.214;2022-11-15T07:26:39;8.20;99.90
40816;DHT22;26535;48.788;9.214;2022-11-15T07:29:23;8.30;99.90
40816;DHT22;26535;48.788;9.214;2022-11-15T07:32:07;8.60;99.90
40816;DHT22;26535;48.788;9.214;2022-11-15T07:34:51;8.70;99.90
40816;DHT22;26535;48.788;9.214;2022-11-15T07:37:35;8.90;99.90
40816;DHT22;26535;48.788;9.214;2022-11-15T07:40:19;9.00;99.90
40816;DHT22;26535;48.788;9.214;2022-11-15T07:43:06;9.10;99.90
40816;DHT22;26535;48.788;9.214;2022-11-15T07:45:51;9.40;99.90
40816;DHT22;26535;48.788;9.214;2022-11-15T07:48:36;9.50;99.90
40816;DHT22;26535;48.788;9.214;2022-11-15T07:51:20;9.70;99.90
40816;DHT22;26535;48.788;9.214;2022-11-15T07:54:05;9.90;99.90
40816;DHT22;26535;48.788;9.214;2022-11-15T07:56:49;10.20;99.90
40816;DHT22;26535;48.788;9.214;2022-11-15T07:59:33;10.40;99.90
40816;DHT22;26535;48.788;9.214;2022-11-15T08:02:18;10.30;99.90
40816;DHT22;26535;48.788;9.214;2022-11-15T08:05:03;10.40;99.90
40816;DHT22;26535;48.788;9.214;2022-11-15T08:07:47;10.50;99.90
40816;DHT22;26535;48.788;9.214;2022-11-15T08:10:32;10.50;99.90
40816;DHT22;26535;48.788;9.214;2022-11-15T08:13:17;10.60;99.90
40816;DHT22;26535;48.788;9.214;2022-11-15T08:16:02;10.70;99.90
40816;DHT22;26535;48.788;9.214;2022-11-15T08:18:49;10.90;99.90
40816;DHT22;26535;48.788;9.214;2022-11-15T08:21:33;10.90;99.90
40816;DHT22;26535;48.788;9.214;2022-11-15T08:24:17;10.90;99.90
40816;DHT22;26535;48.788;9.214;2022-11-15T08:27:02;11.00;99.90
40816;DHT22;26535;48.788;9.214;2022-11-15T08:29:48;10.90;99.90
40816;DHT22;26535;48.788;9.214;2022-11-15T08:32:32;10.80;99.90
40816;DHT22;26535;48.788;9.214;2022-11-15T08:35:17;10.80;99.90
40816;DHT22;26535;48.788;9.214;2022-11-15T08:38:01;10.70;99.90
40816;DHT22;26535;48.788;9.214;2022-11-15T08:40:46;10.80;99.90
40816;DHT22;26535;48.788;9.214;2022-11-15T08:43:30;10.90;99.90
40816;DHT22;26535;48.788;9.214;2022-11-15T08:46:15;11.00;99.90
40816;DHT22;26535;48.788;9.214;2022-11-15T08:48:59;11.10;99.90
40816;DHT22;26535;48.788;9.214;2022-11-15T08:51:43;11.20;99.90
40816;DHT22;26535;48.788;9.214;2022-11-15T08:54:28;11.30;99.90
40816;DHT22;26535;48.788;9.214;2022-11-15T08:57:12;11.50;99.90
40816;DHT22;26535;48.788;9.214;2022-11-15T08:59:57;11.60;99.90
40816;DHT22;26535;48.788;9.214;2022-11-15T09:02:41;11.70;99.90
40816;DHT22;26535;48.788;9.214;2022-11-15T09:05:25;11.80;99.90
40816;DHT22;26535;48.788;9.214;2022-11-15T09:08:10;12.10;99.90
40816;DHT22;26535;48.788;9.214;2022-11-15T09:10:55;12.30;99.90
40816;DHT22;26535;48.788;9.214;2022-11-15T09:13:39;12.60;99.90
40816;DHT22;26535;48.788;9.214;2022-11-15T09:16:24;12.60;99.90
40816;DHT22;26535;48.788;9.214;2022-11-15T09:19:08;12.80;99.90
40816;DHT22;26535;48.788;9.214;2022-11-15T09:21:53;13.00;99.90
40816;DHT22;26535;48.788;9.214;2022-11-15T09:24:37;13.30;99.90
40816;DHT22;26535;48.788;9.214;2022-11-15T09:27:21;13.50;99.90
40816;DHT22;26535;48.788;9.214;2022-11-15T09:30:06;13.80;99.90
40816;DHT22;26535;48.788;9.214;2022-11-15T09:32:51;14.10;99.90
40816;DHT22;26535;48.788;9.214;2022-11-15T09:35:35;14.30;99.90
40816;DHT22;26535;48.788;9.214;2022-11-15T09:38:20;14.50;99.90
40816;DHT22;26535;48.788;9.214;2022-11-15T09:50:10;14.80;99.90
40816;DHT22;26535;48.788;9.214;2022-11-15T09:52:37;14.80;99.90
40816;DHT22;26535;48.788;9.214;2022-11-15T09:55:05;14.80;99.90
40816;DHT22;26535;48.788;9.214;2022-11-15T10:00:48;15.10;99.90
40816;DHT22;26535;48.788;9.214;2022-11-15T10:03:29;15.30;99.90
40816;DHT22;26535;48.788;9.214;2022-11-15T10:06:00;15.40;99.90
40816;DHT22;26535;48.788;9.214;2022-11-15T10:11:16;15.80;99.90
40816;DHT22;26535;48.788;9.214;2022-11-15T10:13:45;15.70;99.90
40816;DHT22;26535;48.788;9.214;2022-11-15T10:19:16;15.60;99.90
40816;DHT22;26535;48.788;9.214;2022-11-15T10:24:43;15.50;99.70
40816;DHT22;26535;48.788;9.214;2022-11-15T10:27:19;15.50;99.90
40816;DHT22;26535;48.788;9.214;2022-11-15T10:29:49;15.40;99.70
40816;DHT22;26535;48.788;9.214;2022-11-15T10:32:20;15.40;99.60
40816;DHT22;26535;48.788;9.214;2022-11-15T10:34:47;15.20;99.90
40816;DHT22;26535;48.788;9.214;2022-11-15T10:37:13;15.20;99.90
40816;DHT22;26535;48.788;9.214;2022-11-15T10:39:39;15.30;99.90
40816;DHT22;26535;48.788;9.214;2022-11-15T10:42:27;15.30;99.90
40816;DHT22;26535;48.788;9.214;2022-11-15T10:44:53;15.20;99.90
40816;DHT22;26535;48.788;9.214;2022-11-15T10:47:30;15.20;99.90
40816;DHT22;26535;48.788;9.214;2022-11-15T10:50:05;15.20;99.90
40816;DHT22;26535;48.788;9.214;2022-11-15T10:52:34;15.30;99.90
40816;DHT22;26535;48.788;9.214;2022-11-15T10:55:26;15.20;99.90
40816;DHT22;26535;48.788;9.214;2022-11-15T10:58:05;15.10;99.90
40816;DHT22;26535;48.788;9.214;2022-11-15T11:00:40;15.20;99.90
40816;DHT22;26535;48.788;9.214;2022-11-15T11:03:34;15.10;99.90
40816;DHT22;26535;48.788;9.214;2022-11-15T11:06:15;15.10;99.90
40816;DHT22;26535;48.788;9.214;2022-11-15T11:08:59;15.10;99.90
40816;DHT22;26535;48.788;9.214;2022-11-15T11:11:47;15.10;99.90
40816;DHT22;26535;48.788;9.214;2022-11-15T11:14:33;15.00;99.90
40816;DHT22;26535;48.788;9.214;2022-11-15T11:28:30;15.10;99.90
40816;DHT22;26535;48.788;9.214;2022-11-15T11:31:00;15.20;99.90
40816;DHT22;26535;48.788;9.214;2022-11-15T11:33:37;15.30;99.90
40816;DHT22;26535;48.788;9.214;2022-11-15T11:42:23;15.80;99.90
40816;DHT22;26535;48.788;9.214;2022-11-15T11:45:01;15.80;99.90
40816;DHT22;26535;48.788;9.214;2022-11-15T11:47:32;15.90;99.90
40816;DHT22;26535;48.788;9.214;2022-11-15T11:50:11;16.00;99.90
40816;DHT22;26535;48.788;9.214;2022-11-15T11:53:04;16.00;99.90
40816;DHT22;26535;48.788;9.214;2022-11-15T11:55:52;16.00;99.90
40816;DHT22;26535;48.788;9.214;2022-11-15T12:01:00;16.30;99.90
40816;DHT22;26535;48.788;9.214;2022-11-15T12:03:52;16.30;99.80
40816;DHT22;26535;48.788;9.214;2022-11-15T12:11:57;16.60;99.70
40816;DHT22;26535;48.788;9.214;2022-11-15T12:14:46;17.30;98.90
40816;DHT22;26535;48.788;9.214;2022-11-15T12:17:13;17.80;98.00
40816;DHT22;26535;48.788;9.214;2022-11-15T12:19:41;17.90;97.90
40816;DHT22;26535;48.788;9.214;2022-11-15T12:22:20;17.80;97.70
40816;DHT22;26535;48.788;9.214;2022-11-15T12:24:56;17.50;98.30
40816;DHT22;26535;48.788;9.214;2022-11-15T12:27:40;17.20;98.70
40816;DHT22;26535;48.788;9.214;2022-11-15T12:30:18;17.00;99.10
40816;DHT22;26535;48.788;9.214;2022-11-15T12:33:30;16.80;99.30
40816;DHT22;26535;48.788;9.214;2022-11-15T12:36:03;16.50;99.90
40816;DHT22;26535;48.788;9.214;2022-11-15T12:44:12;15.90;99.90
40816;DHT22;26535;48.788;9.214;2022-11-15T12:59:55;15.60;99.90
40816;DHT22;26535;48.788;9.214;2022-11-15T13:02:35;15.50;99.90
40816;DHT22;26535;48.788;9.214;2022-11-15T13:17:47;15.40;99.90
40816;DHT22;26535;48.788;9.214;2022-11-15T13:22:52;15.50;99.90
40816;DHT22;26535;48.788;9.214;2022-11-15T13:33:34;15.20;99.90
40816;DHT22;26535;48.788;9.214;2022-11-15T13:36:12;15.10;99.90
40816;DHT22;26535;48.788;9.214;2022-11-15T13:38:40;15.00;99.90
40816;DHT22;26535;48.788;9.214;2022-11-15T13:41:24;15.00;99.90
40816;DHT22;26535;48.788;9.214;2022-11-15T13:43:52;15.10;99.90
40816;DHT22;26535;48.788;9.214;2022-11-15T13:46:22;15.10;99.90
40816;DHT22;26535;48.788;9.214;2022-11-15T13:49:14;15.00;99.90
40816;DHT22;26535;48.788;9.214;2022-11-15T13:51:51;15.00;99.90
40816;DHT22;26535;48.788;9.214;2022-11-15T13:54:26;15.00;99.90
40816;DHT22;26535;48.788;9.214;2022-11-15T13:56:57;15.00;99.90
40816;DHT22;26535;48.788;9.214;2022-11-15T13:59:27;15.00;99.90
40816;DHT22;26535;48.788;9.214;2022-11-15T14:01:55;15.00;99.90
40816;DHT22;26535;48.788;9.214;2022-11-15T14:04:23;15.00;99.90
40816;DHT22;26535;48.788;9.214;2022-11-15T14:06:52;14.90;99.90
40816;DHT22;26535;48.788;9.214;2022-11-15T14:09:30;14.90;99.90
40816;DHT22;26535;48.788;9.214;2022-11-15T14:12:01;14.80;99.90
40816;DHT22;26535;48.788;9.214;2022-11-15T14:14:29;14.80;99.90
40816;DHT22;26535;48.788;9.214;2022-11-15T14:16:59;14.70;99.90
40816;DHT22;26535;48.788;9.214;2022-11-15T14:24:40;14.50;99.90
40816;DHT22;26535;48.788;9.214;2022-11-15T14:29:44;14.30;99.90
40816;DHT22;26535;48.788;9.214;2022-11-15T14:32:27;14.30;99.90
40816;DHT22;26535;48.788;9.214;2022-11-15T14:35:01;14.30;99.90
40816;DHT22;26535;48.788;9.214;2022-11-15T14:37:29;14.30;99.90
40816;DHT22;26535;48.788;9.214;2022-11-15T14:39:58;14.30;99.90
40816;DHT22;26535;48.788;9.214;2022-11-15T14:42:24;14.30;99.90
40816;DHT22;26535;48.788;9.214;2022-11-15T14:44:50;14.20;99.90
40816;DHT22;26535;48.788;9.214;2022-11-15T14:47:17;14.20;99.90
40816;DHT22;26535;48.788;9.214;2022-11-15T14:49:43;14.10;99.90
40816;DHT22;26535;48.788;9.214;2022-11-15T14:52:27;14.00;99.90
40816;DHT22;26535;48.788;9.214;2022-11-15T14:54:56;14.00;99.90
40816;DHT22;26535;48.788;9.214;2022-11-15T14:57:24;13.90;99.90
40816;DHT22;26535;48.788;9.214;2022-11-15T14:59:49;13.80;99.90
40816;DHT22;26535;48.788;9.214;2022-11-15T15:02:17;13.80;99.90
40816;DHT22;26535;48.788;9.214;2022-11-15T15:04:43;13.70;99.90
40816;DHT22;26535;48.788;9.214;2022-11-15T15:07:09;13.70;99.90
40816;DHT22;26535;48.788;9.214;2022-11-15T15:09:34;13.70;99.90
40816;DHT22;26535;48.788;9.214;2022-11-15T15:12:00;13.60;99.90
40816;DHT22;26535;48.788;9.214;2022-11-15T15:14:26;13.60;99.90
40816;DHT22;26535;48.788;9.214;2022-11-15T15:16:52;13.50;99.90
40816;DHT22;26535;48.788;9.214;2022-11-15T15:19:17;13.50;99.90
40816;DHT22;26535;48.788;9.214;2022-11-15T15:21:43;13.40;99.90
40816;DHT22;26535;48.788;9.214;2022-11-15T15:24:15;13.40;99.90
40816;DHT22;26535;48.788;9.214;2022-11-15T15:26:41;13.40;99.90
40816;DHT22;26535;48.788;9.214;2022-11-15T15:29:06;13.40;99.90
40816;DHT22;26535;48.788;9.214;2022-11-15T15:31:34;13.50;99.90
40816;DHT22;26535;48.788;9.214;2022-11-15T15:34:00;13.50;99.90
40816;DHT22;26535;48.788;9.214;2022-11-15T15:36:26;13.40;99.90
40816;DHT22;26535;48.788;9.214;2022-11-15T15:38:51;13.50;99.90
40816;DHT22;26535;48.788;9.214;2022-11-15T15:41:18;13.50;99.90
40816;DHT22;26535;48.788;9.214;2022-11-15T15:43:47;13.50;99.90
40816;DHT22;26535;48.788;9.214;2022-11-15T15:46:17;13.50;99.90
40816;DHT22;26535;48.788;9.214;2022-11-15T15:48:44;13.50;99.90
40816;DHT22;26535;48.788;9.214;2022-11-15T15:51:10;13.50;99.90
40816;DHT22;26535;48.788;9.214;2022-11-15T15:53:37;13.50;99.90
40816;DHT22;26535;48.788;9.214;2022-11-15T15:56:03;13.50;99.90
40816;DHT22;26535;48.788;9.214;2022-11-15T15:58:29;13.50;99.90
40816;DHT22;26535;48.788;9.214;2022-11-15T16:00:57;13.40;99.90
40816;DHT22;26535;48.788;9.214;2022-11-15T16:03:23;13.50;99.90
40816;DHT22;26535;48.788;9.214;2022-11-15T16:05:49;13.50;99.90
40816;DHT22;26535;48.788;9.214;2022-11-15T16:08:23;13.60;99.90
40816;DHT22;26535;48.788;9.214;2022-11-15T16:10:49;13.60;99.90
40816;DHT22;26535;48.788;9.214;2022-11-15T16:13:15;13.60;99.90
40816;DHT22;26535;48.788;9.214;2022-11-15T16:15:42;13.70;99.90
40816;DHT22;26535;48.788;9.214;2022-11-15T16:18:15;13.70;99.90
40816;DHT22;26535;48.788;9.214;2022-11-15T16:20:46;13.70;99.90
40816;DHT22;26535;48.788;9.214;2022-11-15T16:23:16;13.70;99.90
40816;DHT22;26535;48.788;9.214;2022-11-15T16:25:52;13.70;99.90
40816;DHT22;26535;48.788;9.214;2022-11-15T16:28:27;13.80;99.90
40816;DHT22;26535;48.788;9.214;2022-11-15T16:31:09;13.80;99.90
40816;DHT22;26535;48.788;9.214;2022-11-15T16:33:36;13.80;99.90
40816;DHT22;26535;48.788;9.214;2022-11-15T16:36:03;13.80;99.90
40816;DHT22;26535;48.788;9.214;2022-11-15T16:38:30;13.80;99.90
40816;DHT22;26535;48.788;9.214;2022-11-15T16:40:55;13.80;99.90
40816;DHT22;26535;48.788;9.214;2022-11-15T16:43:21;13.80;99.90
40816;DHT22;26535;48.788;9.214;2022-11-15T16:45:51;13.80;99.90
40816;DHT22;26535;48.788;9.214;2022-11-15T16:51:16;13.70;99.90
40816;DHT22;26535;48.788;9.214;2022-11-15T16:53:44;13.50;99.90
40816;DHT22;26535;48.788;9.214;2022-11-15T16:56:18;13.40;99.90
40816;DHT22;26535;48.788;9.214;2022-11-15T16:58:44;13.20;99.90
40816;DHT22;26535;48.788;9.214;2022-11-15T17:01:17;13.10;99.90
40816;DHT22;26535;48.788;9.214;2022-11-15T17:03:43;13.10;99.90
40816;DHT22;26535;48.788;9.214;2022-11-15T17:06:15;13.00;99.90
40816;DHT22;26535;48.788;9.214;2022-11-15T17:08:43;13.00;99.90
40816;DHT22;26535;48.788;9.214;2022-11-15T17:11:14;13.10;99.90
40816;DHT22;26535;48.788;9.214;2022-11-15T17:14:03;13.20;99.90
40816;DHT22;26535;48.788;9.214;2022-11-15T17:16:29;13.40;99.90
40816;DHT22;26535;48.788;9.214;2022-11-15T17:18:55;13.50;99.90
40816;DHT22;26535;48.788;9.214;2022-11-15T17:21:21;13.50;99.90
40816;DHT22;26535;48.788;9.214;2022-11-15T17:23:47;13.60;99.90
40816;DHT22;26535;48.788;9.214;2022-11-15T17:26:16;13.60;99.90
40816;DHT22;26535;48.788;9.214;2022-11-15T17:28:42;13.70;99.90
40816;DHT22;26535;48.788;9.214;2022-11-15T17:31:15;13.70;99.90
40816;DHT22;26535;48.788;9.214;2022-11-15T17:33:40;13.70;99.90
40816;DHT22;26535;48.788;9.214;2022-11-15T17:36:09;13.60;99.90
40816;DHT22;26535;48.788;9.214;2022-11-15T17:38:42;13.60;99.90
40816;DHT22;26535;48.788;9.214;2022-11-15T17:41:15;13.60;99.90
40816;DHT22;26535;48.788;9.214;2022-11-15T17:43:41;13.60;99.90
40816;DHT22;26535;48.788;9.214;2022-11-15T17:46:11;13.50;99.90
40816;DHT22;26535;48.788;9.214;2022-11-15T17:48:37;13.60;99.90
40816;DHT22;26535;48.788;9.214;2022-11-15T17:51:05;13.50;99.90
40816;DHT22;26535;48.788;9.214;2022-11-15T17:53:36;13.50;99.90
40816;DHT22;26535;48.788;9.214;2022-11-15T17:56:08;13.50;99.90
40816;DHT22;26535;48.788;9.214;2022-11-15T17:58:34;13.50;99.90
40816;DHT22;26535;48.788;9.214;2022-11-15T18:01:08;13.60;99.90
40816;DHT22;26535;48.788;9.214;2022-11-15T18:03:37;13.60;99.90
40816;DHT22;26535;48.788;9.214;2022-11-15T18:06:05;13.50;99.90
40816;DHT22;26535;48.788;9.214;2022-11-15T18:08:31;13.60;99.90
40816;DHT22;26535;48.788;9.214;2022-11-15T18:11:27;13.50;99.90
40816;DHT22;26535;48.788;9.214;2022-11-15T18:13:53;13.50;99.90
40816;DHT22;26535;48.788;9.214;2022-11-15T18:16:22;13.50;99.90
40816;DHT22;26535;48.788;9.214;2022-11-15T18:18:53;13.50;99.90
40816;DHT22;26535;48.788;9.214;2022-11-15T18:23:46;13.40;99.90
40816;DHT22;26535;48.788;9.214;2022-11-15T18:26:16;13.40;99.90
40816;DHT22;26535;48.788;9.214;2022-11-15T18:28:44;13.40;99.90
40816;DHT22;26535;48.788;9.214;2022-11-15T18:33:40;13.20;99.90
40816;DHT22;26535;48.788;9.214;2022-11-15T18:36:09;13.10;99.90
40816;DHT22;26535;48.788;9.214;2022-11-15T18:38:36;13.10;99.90
40816;DHT22;26535;48.788;9.214;2022-11-15T18:43:38;13.00;99.90
40816;DHT22;26535;48.788;9.214;2022-11-15T18:46:07;12.90;99.90
40816;DHT22;26535;48.788;9.214;2022-11-15T18:48:34;12.90;99.90
40816;DHT22;26535;48.788;9.214;2022-11-15T18:51:09;12.90;99.90
40816;DHT22;26535;48.788;9.214;2022-11-15T18:53:36;12.90;99.90
40816;DHT22;26535;48.788;9.214;2022-11-15T18:56:16;12.90;99.90
40816;DHT22;26535;48.788;9.214;2022-11-15T18:58:47;12.90;99.90
40816;DHT22;26535;48.788;9.214;2022-11-15T19:01:18;12.80;99.90
40816;DHT22;26535;48.788;9.214;2022-11-15T19:03:50;12.80;99.90
40816;DHT22;26535;48.788;9.214;2022-11-15T19:06:18;12.80;99.90
40816;DHT22;26535;48.788;9.214;2022-11-15T19:08:46;12.80;99.90
40816;DHT22;26535;48.788;9.214;2022-11-15T19:11:20;12.80;99.90
40816;DHT22;26535;48.788;9.214;2022-11-15T19:13:52;12.70;99.90
40816;DHT22;26535;48.788;9.214;2022-11-15T19:16:20;12.70;99.90
40816;DHT22;26535;48.788;9.214;2022-11-15T19:18:46;12.60;99.90
40816;DHT22;26535;48.788;9.214;2022-11-15T19:21:12;12.60;99.90
40816;DHT22;26535;48.788;9.214;2022-11-15T19:23:40;12.50;99.90
40816;DHT22;26535;48.788;9.214;2022-11-15T19:26:12;12.50;99.90
40816;DHT22;26535;48.788;9.214;2022-11-15T19:28:39;12.50;99.90
40816;DHT22;26535;48.788;9.214;2022-11-15T19:31:07;12.40;99.90
40816;DHT22;26535;48.788;9.214;2022-11-15T19:33:34;12.40;99.90
40816;DHT22;26535;48.788;9.214;2022-11-15T19:36:01;12.40;99.90
40816;DHT22;26535;48.788;9.214;2022-11-15T19:38:29;12.40;99.90
40816;DHT22;26535;48.788;9.214;2022-11-15T19:41:03;12.30;99.90
40816;DHT22;26535;48.788;9.214;2022-11-15T19:43:30;12.30;99.90
40816;DHT22;26535;48.788;9.214;2022-11-15T19:46:00;12.30;99.90
40816;DHT22;26535;48.788;9.214;2022-11-15T19:48:27;12.30;99.90
40816;DHT22;26535;48.788;9.214;2022-11-15T19:50:53;12.20;99.90
40816;DHT22;26535;48.788;9.214;2022-11-15T19:53:19;12.20;99.90
40816;DHT22;26535;48.788;9.214;2022-11-15T19:56:02;12.20;99.90
40816;DHT22;26535;48.788;9.214;2022-11-15T19:58:29;12.20;99.90
40816;DHT22;26535;48.788;9.214;2022-11-15T20:01:06;12.30;99.90
40816;DHT22;26535;48.788;9.214;2022-11-15T20:03:33;12.20;99.90
40816;DHT22;26535;48.788;9.214;2022-11-15T20:06:04;12.20;99.90
40816;DHT22;26535;48.788;9.214;2022-11-15T20:08:30;12.20;99.90
40816;DHT22;26535;48.788;9.214;2022-11-15T20:10:56;12.10;99.90
40816;DHT22;26535;48.788;9.214;2022-11-15T20:13:23;12.10;99.90
40816;DHT22;26535;48.788;9.214;2022-11-15T20:15:49;12.20;99.90
40816;DHT22;26535;48.788;9.214;2022-11-15T20:18:15;12.20;99.90
40816;DHT22;26535;48.788;9.214;2022-11-15T20:20:41;12.10;99.90
40816;DHT22;26535;48.788;9.214;2022-11-15T20:23:07;12.10;99.90
40816;DHT22;26535;48.788;9.214;2022-11-15T20:25:34;12.10;99.90
40816;DHT22;26535;48.788;9.214;2022-11-15T20:28:03;12.10;99.90
40816;DHT22;26535;48.788;9.214;2022-11-15T20:30:31;12.00;99.90
40816;DHT22;26535;48.788;9.214;2022-11-15T20:32:57;12.00;99.90
40816;DHT22;26535;48.788;9.214;2022-11-15T20:35:22;12.00;99.90
40816;DHT22;26535;48.788;9.214;2022-11-15T20:37:48;12.00;99.90
40816;DHT22;26535;48.788;9.214;2022-11-15T20:40:14;12.00;99.90
40816;DHT22;26535;48.788;9.214;2022-11-15T20:42:42;12.00;99.90
40816;DHT22;26535;48.788;9.214;2022-11-15T20:45:08;11.90;99.90
40816;DHT22;26535;48.788;9.214;2022-11-15T20:47:34;12.00;99.90
40816;DHT22;26535;48.788;9.214;2022-11-15T20:50:00;12.00;99.90
40816;DHT22;26535;48.788;9.214;2022-11-15T20:52:26;11.90;99.90
40816;DHT22;26535;48.788;9.214;2022-11-15T20:54:51;11.90;99.90
40816;DHT22;26535;48.788;9.214;2022-11-15T20:57:17;11.90;99.90
40816;DHT22;26535;48.788;9.214;2022-11-15T20:59:43;11.90;99.90
40816;DHT22;26535;48.788;9.214;2022-11-15T21:02:14;11.90;99.90
40816;DHT22;26535;48.788;9.214;2022-11-15T21:04:43;11.80;99.90
40816;DHT22;26535;48.788;9.214;2022-11-15T21:07:09;11.80;99.90
40816;DHT22;26535;48.788;9.214;2022-11-15T21:09:35;11.80;99.90
40816;DHT22;26535;48.788;9.214;2022-11-15T21:12:20;11.80;99.90
40816;DHT22;26535;48.788;9.214;2022-11-15T21:14:46;11.80;99.90
40816;DHT22;26535;48.788;9.214;2022-11-15T21:17:14;11.90;99.90
40816;DHT22;26535;48.788;9.214;2022-11-15T21:19:41;11.90;99.90
40816;DHT22;26535;48.788;9.214;2022-11-15T21:22:08;11.80;99.90
40816;DHT22;26535;48.788;9.214;2022-11-15T21:24:34;11.80;99.90
40816;DHT22;26535;48.788;9.214;2022-11-15T21:27:00;11.70;99.90
40816;DHT22;26535;48.788;9.214;2022-11-15T21:29:25;11.80;99.90
40816;DHT22;26535;48.788;9.214;2022-11-15T21:31:52;11.80;99.90
40816;DHT22;26535;48.788;9.214;2022-11-15T21:34:19;11.70;99.90
40816;DHT22;26535;48.788;9.214;2022-11-15T21:36:44;11.70;99.90
40816;DHT22;26535;48.788;9.214;2022-11-15T21:39:11;11.70;99.90
40816;DHT22;26535;48.788;9.214;2022-11-15T21:41:36;11.60;99.90
40816;DHT22;26535;48.788;9.214;2022-11-15T21:44:03;11.60;99.90
40816;DHT22;26535;48.788;9.214;2022-11-15T21:46:35;11.60;99.90
40816;DHT22;26535;48.788;9.214;2022-11-15T21:49:03;11.60;99.90
40816;DHT22;26535;48.788;9.214;2022-11-15T21:51:30;11.60;99.90
40816;DHT22;26535;48.788;9.214;2022-11-15T21:54:01;11.60;99.90
40816;DHT22;26535;48.788;9.214;2022-11-15T21:56:28;11.60;99.90
40816;DHT22;26535;48.788;9.214;2022-11-15T21:58:54;11.50;99.90
40816;DHT22;26535;48.788;9.214;2022-11-15T22:01:22;11.60;99.90
40816;DHT22;26535;48.788;9.214;2022-11-15T22:04:07;11.60;99.90
40816;DHT22;26535;48.788;9.214;2022-11-15T22:06:33;11.60;99.90
40816;DHT22;26535;48.788;9.214;2022-11-15T22:09:03;11.60;99.90
40816;DHT22;26535;48.788;9.214;2022-11-15T22:11:30;11.70;99.90
40816;DHT22;26535;48.788;9.214;2022-11-15T22:13:56;11.70;99.90
40816;DHT22;26535;48.788;9.214;2022-11-15T22:16:22;11.70;99.90
40816;DHT22;26535;48.788;9.214;2022-11-15T22:18:48;11.70;99.90
40816;DHT22;26535;48.788;9.214;2022-11-15T22:21:15;11.70;99.90
40816;DHT22;26535;48.788;9.214;2022-11-15T22:23:42;11.70;99.90
40816;DHT22;26535;48.788;9.214;2022-11-15T22:26:13;11.70;99.90
40816;DHT22;26535;48.788;9.214;2022-11-15T22:28:39;11.80;99.90
40816;DHT22;26535;48.788;9.214;2022-11-15T22:31:05;11.80;99.90
40816;DHT22;26535;48.788;9.214;2022-11-15T22:33:32;11.80;99.90
40816;DHT22;26535;48.788;9.214;2022-11-15T22:35:58;11.80;99.90
40816;DHT22;26535;48.788;9.214;2022-11-15T22:38:25;11.80;99.90
40816;DHT22;26535;48.788;9.214;2022-11-15T22:40:51;11.80;99.90
40816;DHT22;26535;48.788;9.214;2022-11-15T22:43:19;11.80;99.90
40816;DHT22;26535;48.788;9.214;2022-11-15T22:45:55;11.80;99.90
40816;DHT22;26535;48.788;9.214;2022-11-15T22:48:27;11.70;99.90
40816;DHT22;26535;48.788;9.214;2022-11-15T22:50:53;11.70;99.90
40816;DHT22;26535;48.788;9.214;2022-11-15T22:53:20;11.60;99.90
40816;DHT22;26535;48.788;9.214;2022-11-15T22:55:53;11.60;99.90
40816;DHT22;26535;48.788;9.214;2022-11-15T22:58:21;11.50;99.90
40816;DHT22;26535;48.788;9.214;2022-11-15T23:00:49;11.50;99.90
40816;DHT22;26535;48.788;9.214;2022-11-15T23:03:15;11.50;99.90
40816;DHT22;26535;48.788;9.214;2022-11-15T23:05:41;11.40;99.90
40816;DHT22;26535;48.788;9.214;2022-11-15T23:08:07;11.40;99.90
40816;DHT22;26535;48.788;9.214;2022-11-15T23:10:35;11.40;99.90
40816;DHT22;26535;48.788;9.214;2022-11-15T23:13:20;11.40;99.90
40816;DHT22;26535;48.788;9.214;2022-11-15T23:15:50;11.40;99.90
40816;DHT22;26535;48.788;9.214;2022-11-15T23:18:37;11.40;99.90
40816;DHT22;26535;48.788;9.214;2022-11-15T23:21:15;11.40;99.90
40816;DHT22;26535;48.788;9.214;2022-11-15T23:24:01;11.40;99.90
40816;DHT22;26535;48.788;9.214;2022-11-15T23:26:27;11.40;99.90
40816;DHT22;26535;48.788;9.214;2022-11-15T23:28:53;11.40;99.90
40816;DHT22;26535;48.788;9.214;2022-11-15T23:31:19;11.40;99.90
40816;DHT22;26535;48.788;9.214;2022-11-15T23:34:03;11.30;99.90
40816;DHT22;26535;48.788;9.214;2022-11-15T23:36:29;11.30;99.90
40816;DHT22;26535;48.788;9.214;2022-11-15T23:38:55;11.20;99.90
40816;DHT22;26535;48.788;9.214;2022-11-15T23:41:23;11.20;99.90
40816;DHT22;26535;48.788;9.214;2022-11-15T23:43:50;11.10;99.90
40816;DHT22;26535;48.788;9.214;2022-11-15T23:46:15;11.10;99.90
40816;DHT22;26535;48.788;9.214;2022-11-15T23:48:42;11.10;99.90
40816;DHT22;26535;48.788;9.214;2022-11-15T23:51:10;11.10;99.90
40816;DHT22;26535;48.788;9.214;2022-11-15T23:53:36;11.00;99.90
40816;DHT22;26535;48.788;9.214;2022-11-15T23:56:11;11.00;99.90
40816;DHT22;26535;48.788;9.214;2022-11-15T23:58:40;11.00;99.90
